Time;durP1;ratioP1;P1;durP2;ratioP2;P2;SDS_P1;SDS_P2;PMS_P1;PMS_P2;Temp;Humidity;BMP_temperature;BMP_pressure;BME280_temperature;BME280_humidity;BME280_pressure;Samples;Min_cycle;Max_cycle;Signal;HPM_P1;HPM_P2
2021/12/03 00:00:00;;;;;;;;;;;-0.10;99.90;;;-1.16;100.00;94792.66;10486680;28;1983;-75
2021/12/03 00:05:03;;;;;;;;;;;0.10;99.90;;;-1.27;100.00;94798.69;10473317;28;1951;-75
2021/12/03 00:10:11;;;;;;;;;;;-0.10;99.90;;;-1.17;100.00;94812.16;10486548;28;1759;-75
2021/12/03 00:15:14;;;;;;;;;;;0.00;99.90;;;-1.19;100.00;94814.22;10484708;28;1919;-76
2021/12/03 00:20:16;;;;;;;;;;;-0.10;99.90;;;-1.35;100.00;94823.53;10478081;28;1911;-75
2021/12/03 00:25:20;;;;;;;;;;;;;;;-1.36;100.00;94828.00;10476322;28;1822;-76
2021/12/03 00:30:23;;;;;;;;;;;-0.20;99.90;;;-1.43;100.00;94837.03;10486423;28;2023;-76
2021/12/03 00:35:26;;;;;;;;;;;;;;;-1.46;100.00;94851.47;10483062;28;1918;-75
2021/12/03 00:40:30;;;;;;;;;;;;;;;-1.28;100.00;94871.72;10481598;28;1785;-76
2021/12/03 00:45:33;;;;;;;;;;;;;;;-1.06;100.00;94884.44;10478481;28;1520;-76
2021/12/03 00:50:37;;;;;;;;;;;;;;;-0.92;100.00;94902.50;10479871;28;1962;-76
2021/12/03 00:55:40;;;;;;;;;;;;;;;-1.02;100.00;94911.97;10475001;28;1914;-76
2021/12/03 01:00:43;;;;;;;;;;;;;;;-1.02;100.00;94927.78;10485127;28;1771;-76
2021/12/03 01:05:47;;;;;;;;;;;;;;;-0.95;100.00;94950.44;10481101;28;1984;-76
2021/12/03 01:10:50;;;;;;;;;;;;;;;-0.88;100.00;94945.09;10484863;28;1914;-76
2021/12/03 01:15:54;;;;;;;;;;;;;;;-0.85;100.00;94960.47;10486840;28;1980;-75
2021/12/03 01:20:57;;;;;;;;;;;;;;;-0.78;100.00;94966.47;10535156;28;1880;-76
2021/12/03 01:26:00;;;;;;;;;;;;;;;-0.71;100.00;94980.38;10494178;28;1908;-76
2021/12/03 01:31:04;;;;;;;;;;;;;;;-0.69;100.00;94991.53;10480014;28;1832;-76
2021/12/03 01:36:07;;;;;;;;;;;;;;;-0.69;100.00;95011.84;10487948;28;1969;-77
2021/12/03 01:41:11;;;;;;;;;;;;;;;-0.66;100.00;95012.19;10484933;28;1789;-77
2021/12/03 01:46:16;;;;;;;;;;;;;;;-0.59;100.00;95018.19;10484720;28;1853;-77
2021/12/03 01:51:20;;;;;;;;;;;;;;;-0.67;100.00;95009.78;10470929;28;1868;-75
2021/12/03 01:56:23;;;;;;;;;;;;;;;-0.69;100.00;94991.53;10489129;28;1914;-78
2021/12/03 02:01:26;;;;;;;;;;;;;;;-0.85;100.00;95002.69;10481744;28;2190;-76
2021/12/03 02:06:30;;;;;;;;;;;;;;;-0.91;100.00;95009.63;10483488;28;2025;-77
2021/12/03 02:11:33;;;;;;;;;;;;;;;-0.88;100.00;94998.66;10488363;28;2229;-77
2021/12/03 02:16:38;;;;;;;;;;;;;;;-0.93;100.00;95010.91;10487048;28;2281;-77
2021/12/03 02:21:41;;;;;;;;;;;;;;;-0.96;100.00;94998.13;10503568;28;1939;-76
2021/12/03 02:26:49;;;;;;;;;;;;;;;-0.95;100.00;95012.97;10488703;28;1888;-76
2021/12/03 02:31:54;;;;;;;;;;;;;;;-1.03;100.00;95010.59;10494865;28;1956;-77
2021/12/03 02:36:57;;;;;;;;;;;;;;;-0.94;100.00;95014.56;10510068;28;1805;-77
2021/12/03 02:42:00;;;;;;;;;;;;;;;-0.81;100.00;95019.69;10483186;28;1738;-76
2021/12/03 02:47:04;;;;;;;;;;;;;;;-0.74;100.00;95036.25;10488803;28;2005;-77
2021/12/03 02:52:07;;;;;;;;;;;;;;;-0.65;100.00;95034.91;10491848;28;2075;-77
2021/12/03 02:57:10;;;;;;;;;;;;;;;-0.63;100.00;95053.19;10488334;28;2051;-77
2021/12/03 03:02:14;;;;;;;;;;;;;;;-0.59;100.00;95060.44;10502297;28;1999;-77
2021/12/03 03:07:29;;;;;;;;;;;;;;;-0.56;100.00;95060.00;10486996;28;2046;-77
2021/12/03 03:12:32;;;;;;;;;;;;;;;-0.51;100.00;95061.94;10481358;28;2184;-77
2021/12/03 03:17:35;;;;;;;;;;;;;;;-0.45;100.00;95065.53;10493494;28;2025;-77
2021/12/03 03:22:38;;;;;;;;;;;;;;;-0.49;100.00;95074.94;10482313;28;1913;-78
2021/12/03 03:27:42;;;;;;;;;;;;;;;-0.45;100.00;95069.00;10488418;28;2000;-78
2021/12/03 03:32:45;;;;;;;;;;;;;;;-0.53;100.00;95076.41;10489836;28;2080;-79
2021/12/03 03:37:48;;;;;;;;;;;;;;;-0.61;100.00;95066.97;10478577;28;2419;-77
2021/12/03 03:42:52;;;;;;;;;;;;;;;-0.58;100.00;95082.34;10477730;28;2091;-77
2021/12/03 03:47:55;;;;;;;;;;;;;;;-0.53;100.00;95086.97;10486511;28;2360;-76
2021/12/03 03:52:58;;;;;;;;;;;;;;;-0.57;100.00;95084.78;10488448;28;2071;-76
2021/12/03 03:58:01;;;;;;;;;;;;;;;-0.53;100.00;95090.41;10486537;28;2000;-76
2021/12/03 04:03:05;;;;;;;;;;;;;;;-0.51;100.00;95092.81;10483163;28;2401;-75
2021/12/03 04:08:09;;;;;;;;;;;;;;;-0.46;100.00;95100.91;10485327;28;2052;-76
2021/12/03 04:13:13;;;;;;;;;;;;;;;-0.41;100.00;95108.97;10500196;28;2414;-76
2021/12/03 04:18:16;;;;;;;;;;;;;;;-0.50;100.00;95110.31;10489247;28;2094;-75
2021/12/03 04:23:20;;;;;;;;;;;;;;;-0.56;100.00;95112.78;10484922;28;2058;-75
2021/12/03 04:28:24;;;;;;;;;;;;;;;-0.56;100.00;95123.34;10479857;28;2096;-75
2021/12/03 04:33:28;;;;;;;;;;;;;;;-0.61;100.00;95125.84;10479674;28;2143;-74
2021/12/03 04:38:31;;;;;;;;;;;;;;;-0.62;100.00;95118.16;10478701;28;2436;-75
2021/12/03 04:43:34;;;;;;;;;;;;;;;-0.59;100.00;95134.34;10482874;28;2154;-74
2021/12/03 04:48:38;;;;;;;;;;;;;;;-0.78;100.00;95137.19;10475853;28;1956;-74
2021/12/03 04:53:41;;;;;;;;;;;;;;;-0.80;100.00;95147.97;10481964;28;2118;-75
2021/12/03 04:58:49;;;;;;;;;;;;;;;-0.70;100.00;95158.00;10476664;28;2025;-75
2021/12/03 05:03:52;;;;;;;;;;;;;;;-0.74;100.00;95167.41;10499572;28;2028;-75
2021/12/03 05:08:56;;;;;;;;;;;;;;;-0.83;100.00;95174.78;10475735;28;1956;-75
2021/12/03 05:13:59;;;;;;;;;;;;;;;-0.91;100.00;95175.88;10482338;28;1979;-75
2021/12/03 05:19:02;;;;;;;;;;;;;;;-0.86;100.00;95181.31;10490015;28;2166;-74
2021/12/03 05:24:05;;;;;;;;;;;;;;;-0.90;100.00;95185.38;10497794;28;2059;-74
2021/12/03 05:29:09;;;;;;;;;;;;;;;-0.94;100.00;95196.59;10525410;28;2137;-74
2021/12/03 05:34:15;;;;;;;;;;;;;;;-0.93;100.00;95206.13;10503436;28;2010;-75
2021/12/03 05:39:18;;;;;;;;;;;;;;;-0.82;100.00;95214.16;10474252;28;1873;-74
2021/12/03 05:44:21;;;;;;;;;;;;;;;-0.79;100.00;95215.53;10487722;28;1981;-74
2021/12/03 05:49:25;;;;;;;;;;;;;;;-0.73;100.00;95230.53;10476556;28;1966;-76
2021/12/03 05:54:28;;;;;;;;;;;;;;;-0.72;100.00;95239.25;10475809;28;1902;-75
2021/12/03 05:59:31;;;;;;;;;;;;;;;-0.65;100.00;95246.06;10478413;28;1946;-75
2021/12/03 06:04:35;;;;;;;;;;;;;;;-0.64;100.00;95258.25;10481756;28;1893;-75
2021/12/03 06:09:38;;;;;;;;;;;;;;;-0.68;100.00;95270.28;10484748;28;1922;-74
2021/12/03 06:14:42;;;;;;;;;;;;;;;-0.69;100.00;95271.31;10487965;28;1933;-75
2021/12/03 06:19:45;;;;;;;;;;;;;;;-0.76;100.00;95282.91;10490626;28;1812;-74
2021/12/03 06:24:48;;;;;;;;;;;;;;;-0.72;100.00;95287.56;10488487;28;1900;-74
2021/12/03 06:29:52;;;;;;;;;;;;;;;-0.80;100.00;95285.19;10505205;28;1844;-75
2021/12/03 06:34:55;;;;;;;;;;;;;;;-0.85;100.00;95287.66;10479681;28;1910;-74
2021/12/03 06:39:58;;;;;;;;;;;;;;;-0.92;100.00;95292.97;10487041;28;1915;-74
2021/12/03 06:45:03;;;;;;;;;;;;;;;-0.92;100.00;95300.09;10485636;28;1943;-75
2021/12/03 06:50:08;;;;;;;;;;;;;;;-0.94;100.00;95299.50;10486034;28;1951;-74
2021/12/03 06:55:14;;;;;;;;;;;;;;;-0.86;100.00;95317.72;10506774;28;1980;-74
2021/12/03 07:00:17;;;;;;;;;;;;;;;-0.80;100.00;95322.13;10492711;28;1892;-75
2021/12/03 07:05:21;;;;;;;;;;;;;;;-0.77;100.00;95337.53;10488882;28;1935;-73
2021/12/03 07:10:24;;;;;;;;;;;;;;;-0.68;100.00;95338.09;10489013;28;1880;-74
2021/12/03 07:15:27;;;;;;;;;;;;;;;-0.68;100.00;95348.66;10492675;28;1914;-75
2021/12/03 07:20:31;;;;;;;;;;;;;;;-0.78;100.00;95350.94;10485737;28;1911;-73
2021/12/03 07:25:34;;;;;;;;;;;;;;;-0.85;100.00;95351.00;10480849;28;1793;-74
2021/12/03 07:30:39;;;;;;;;;;;;;;;-0.78;100.00;95367.59;10490725;28;1908;-77
2021/12/03 07:35:44;;;;;;;;;;;;;;;-0.74;100.00;95379.34;10486894;28;1972;-78
2021/12/03 07:40:48;;;;;;;;;;;0.20;99.90;;;-0.72;100.00;95366.75;10487212;28;1801;-79
2021/12/03 07:45:51;;;;;;;;;;;0.40;99.90;;;-0.65;100.00;95372.78;10492366;28;1930;-79
2021/12/03 07:50:55;;;;;;;;;;;0.30;99.90;;;-0.53;100.00;95390.59;10490553;28;2085;-77
2021/12/03 07:55:58;;;;;;;;;;;0.50;99.90;;;-0.30;100.00;95390.84;10496367;28;1921;-81
2021/12/03 08:01:01;;;;;;;;;;;0.50;99.90;;;-0.27;100.00;95401.75;10482622;28;1971;-78
2021/12/03 08:06:08;;;;;;;;;;;1.10;99.90;;;-0.18;100.00;95397.03;10502158;28;1985;-78
2021/12/03 08:11:11;;;;;;;;;;;0.50;99.90;;;-0.03;100.00;95402.78;10485906;28;1886;-77
2021/12/03 08:16:14;;;;;;;;;;;0.80;99.90;;;0.16;100.00;95405.47;10484077;28;2008;-76
2021/12/03 08:21:17;;;;;;;;;;;0.90;99.90;;;0.23;100.00;95411.50;10476708;28;1954;-81
2021/12/03 08:26:20;;;;;;;;;;;1.00;99.90;;;0.45;100.00;95415.38;10488062;28;1935;-76
2021/12/03 08:31:23;;;;;;;;;;;1.20;99.90;;;0.79;100.00;95413.19;10491260;28;1919;-73
2021/12/03 08:36:26;;;;;;;;;;;1.40;99.90;;;0.53;100.00;95412.44;10476896;28;2158;-75
2021/12/03 08:41:28;;;;;;;;;;;1.50;99.90;;;0.36;100.00;95426.44;10483189;28;1920;-75
2021/12/03 08:46:33;;;;;;;;;;;1.30;99.90;;;0.36;100.00;95427.25;10474447;28;2218;-74
2021/12/03 08:51:48;;;;;;;;;;;1.20;99.90;;;0.48;100.00;95436.09;10474422;28;1873;-73
2021/12/03 08:56:51;;;;;;;;;;;1.30;99.90;;;0.60;100.00;95428.25;10479798;28;1941;-74
2021/12/03 09:01:54;;;;;;;;;;;1.30;99.90;;;0.05;100.00;95435.25;10476726;28;1836;-74
2021/12/03 09:06:58;;;;;;;;;;;1.20;99.90;;;-0.20;100.00;95438.69;10470717;28;1876;-74
2021/12/03 09:12:01;;;;;;;;;;;0.90;99.90;;;0.10;100.00;95449.44;10484481;28;1837;-75
2021/12/03 09:17:14;;;;;;;;;;;1.00;99.90;;;0.10;100.00;95451.28;10479299;28;1934;-75
2021/12/03 09:22:25;;;;;;;;;;;1.00;99.90;;;0.02;100.00;95456.84;10472168;28;1875;-75
2021/12/03 09:27:28;;;;;;;;;;;1.00;99.90;;;0.06;100.00;95452.72;10473255;28;1903;-76
2021/12/03 09:32:32;;;;;;;;;;;1.00;99.90;;;0.40;100.00;95452.25;10482427;28;1927;-74
2021/12/03 09:37:35;;;;;;;;;;;1.30;99.90;;;0.36;99.32;95448.41;10535268;28;1890;-77
2021/12/03 09:42:38;;;;;;;;;;;1.30;99.90;;;0.53;98.76;95449.47;10522690;28;1908;-78
2021/12/03 09:47:41;;;;;;;;;;;1.30;99.90;;;0.80;96.30;95444.69;10512784;28;1956;-78
2021/12/03 09:52:55;;;;;;;;;;;1.50;99.90;;;0.95;97.70;95441.69;10501719;28;1999;-78
2021/12/03 09:58:07;;;;;;;;;;;1.80;99.90;;;0.85;96.08;95449.34;10514986;28;1933;-77
2021/12/03 10:03:23;;;;;;;;;;;1.80;99.90;;;0.39;97.66;95445.34;10508730;28;1843;-77
2021/12/03 10:14:00;;;;;;;;;;;1.50;99.90;;;0.44;97.34;95434.88;10482756;28;1975;-77
2021/12/03 10:19:04;;;;;;;;;;;1.40;99.90;;;0.66;97.53;95418.63;10491460;28;1860;-77
2021/12/03 10:24:29;;;;;;;;;;;1.50;99.90;;;0.56;93.23;95415.66;10501899;28;1897;-80
2021/12/03 10:29:40;;;;;;;;;;;1.60;99.90;;;0.27;93.13;95410.06;10501384;28;1952;-77
2021/12/03 10:35:01;;;;;;;;;;;1.40;99.90;;;0.13;90.08;95405.94;10492229;28;1917;-77
2021/12/03 10:40:08;;;;;;;;;;;1.10;99.90;;;0.12;91.06;95409.56;10489860;28;1875;-77
2021/12/03 10:45:27;;;;;;;;;;;1.00;99.90;;;0.14;93.61;95397.78;10490435;28;1883;-77
2021/12/03 10:50:47;;;;;;;;;;;1.10;99.90;;;0.19;89.36;95384.72;10484749;28;1933;-77
2021/12/03 11:07:02;;;;;;;;;;;1.10;99.90;;;0.23;88.26;95383.25;10503332;28;2106;-78
2021/12/03 14:42:57;;;;;;;;;;;1.20;99.90;;;-0.05;84.42;95319.50;10472279;28;1861;-75
2021/12/03 14:53:44;;;;;;;;;;;1.00;99.90;;;-0.20;86.67;95337.50;10596120;27;1942;-76
2021/12/03 14:58:51;;;;;;;;;;;1.00;99.90;;;-0.30;89.14;95335.38;10589374;27;2228;-74
2021/12/03 15:04:11;;;;;;;;;;;0.90;99.90;;;-0.42;89.35;95335.25;10551068;28;1861;-76
2021/12/03 15:09:19;;;;;;;;;;;0.90;99.90;;;-0.47;90.92;95331.63;10549960;28;1910;-76
2021/12/03 15:14:54;;;;;;;;;;;0.70;99.90;;;-0.48;91.32;95330.84;10551516;28;1859;-76
2021/12/03 15:25:32;;;;;;;;;;;;;;;-0.45;91.26;95324.31;10522249;28;1952;-77
2021/12/03 15:35:58;;;;;;;;;;;;;;;-0.73;92.83;95325.53;10553305;28;1925;-78
2021/12/03 16:08:14;;;;;;;;;;;0.30;99.90;;;-1.03;97.58;95317.41;10518926;28;1929;-78
2021/12/03 16:13:27;;;;;;;;;;;0.20;99.90;;;-1.09;98.64;95313.78;10517610;28;1933;-75
2021/12/03 16:18:49;;;;;;;;;;;;;;;-1.08;97.74;95301.44;10515518;28;1975;-75
2021/12/03 16:24:09;;;;;;;;;;;;;;;-1.10;97.24;95306.88;10513690;28;1818;-75
2021/12/03 16:45:30;;;;;;;;;;;;;;;-1.17;97.96;95295.56;10513708;28;1838;-74
2021/12/03 16:56:01;;;;;;;;;;;;;;;-1.18;98.20;95304.50;10528930;28;1881;-73
2021/12/03 17:01:07;;;;;;;;;;;;;;;-1.21;96.83;95304.13;10508936;28;1940;-74
2021/12/03 17:11:47;;;;;;;;;;;;;;;-1.16;98.24;95306.94;10477419;28;2032;-73
2021/12/03 17:49:16;;;;;;;;;;;;;;;-1.05;100.00;95256.16;10541124;28;1853;-75
2021/12/03 17:59:34;;;;;;;;;;;;;;;-0.87;100.00;95250.13;10532964;28;1937;-72
2021/12/03 18:04:51;;;;;;;;;;;;;;;-0.81;100.00;95251.91;10528751;28;1870;-73
2021/12/03 18:53:08;;;;;;;;;;;;;;;-1.51;100.00;95208.97;10525052;28;1914;-75
2021/12/03 18:58:12;;;;;;;;;;;;;;;-1.61;100.00;95206.00;10519420;28;2189;-75
2021/12/03 19:03:21;;;;;;;;;;;;;;;-1.70;100.00;95190.44;10514559;28;1710;-76
2021/12/03 19:08:34;;;;;;;;;;;;;;;-1.76;100.00;95180.75;10517215;28;1806;-77
2021/12/03 19:13:40;;;;;;;;;;;;;;;-1.83;100.00;95185.25;10519250;28;1981;-75
2021/12/03 19:18:45;;;;;;;;;;;;;;;-1.84;100.00;95167.81;10508837;28;2026;-75
2021/12/03 19:23:48;;;;;;;;;;;;;;;-1.90;100.00;95179.19;10524389;28;1853;-77
2021/12/03 19:28:52;;;;;;;;;;;;;;;-1.92;100.00;95163.59;10532682;28;1955;-77
2021/12/03 19:33:55;;;;;;;;;;;;;;;-1.79;100.00;95160.06;10531807;28;1975;-75
2021/12/03 19:38:59;;;;;;;;;;;;;;;-1.85;100.00;95155.66;10534598;28;1966;-78
2021/12/03 19:44:03;;;;;;;;;;;;;;;-1.85;100.00;95155.66;10535269;28;1878;-78
2021/12/03 19:49:13;;;;;;;;;;;;;;;-1.83;100.00;95148.34;10534378;28;1925;-77
2021/12/03 19:54:16;;;;;;;;;;;;;;;-1.87;100.00;95149.78;10542676;28;1909;-78
2021/12/03 19:59:19;;;;;;;;;;;;;;;-1.84;100.00;95130.13;10541097;28;1920;-80
2021/12/03 20:04:23;;;;;;;;;;;;;;;-1.75;100.00;95132.28;10535445;28;1778;-79
2021/12/03 20:09:30;;;;;;;;;;;;;;;-1.86;100.00;95126.88;10532961;28;1921;-77
2021/12/03 20:14:33;;;;;;;;;;;;;;;-1.88;100.00;95124.47;10532573;28;1902;-79
2021/12/03 20:19:38;;;;;;;;;;;;;;;-2.05;100.00;95118.88;10525803;28;1894;-79
2021/12/03 20:25:13;;;;;;;;;;;;;;;-2.12;100.00;95101.50;10536174;28;2083;-78
2021/12/03 20:30:22;;;;;;;;;;;;;;;-2.08;100.00;95089.53;10531759;28;1953;-78
2021/12/03 20:35:49;;;;;;;;;;;;;;;-2.03;100.00;95087.91;10530081;28;1902;-78
2021/12/03 20:40:54;;;;;;;;;;;;;;;-2.08;100.00;95081.66;10512631;28;1870;-77
2021/12/03 20:46:09;;;;;;;;;;;;;;;-2.13;100.00;95084.09;10518712;28;1920;-77
2021/12/03 20:51:46;;;;;;;;;;;;;;;-2.33;100.00;95071.03;10525293;28;1969;-77
2021/12/03 21:12:55;;;;;;;;;;;-1.80;99.90;;;-2.42;100.00;95044.13;10535629;28;1973;-76
2021/12/03 21:18:10;;;;;;;;;;;;;;;-2.39;100.00;95043.72;10516302;28;1865;-76
2021/12/03 21:23:17;;;;;;;;;;;;;;;-2.45;100.00;95044.56;10521501;28;1806;-78
2021/12/03 21:28:33;;;;;;;;;;;;;;;-2.52;100.00;95049.88;10521768;28;1290;-74
2021/12/03 21:39:05;;;;;;;;;;;;;;;-2.37;100.00;95002.22;10472623;28;1379;-73
2021/12/03 21:44:09;;;;;;;;;;;;;;;-2.29;100.00;94994.06;10524395;28;1185;-73
2021/12/03 21:49:12;;;;;;;;;;;;;;;-2.32;100.00;94978.69;10515181;28;1412;-74
2021/12/03 21:54:15;;;;;;;;;;;;;;;-2.25;99.73;94976.81;10541107;28;1914;-73
2021/12/03 21:59:19;;;;;;;;;;;;;;;-2.20;98.80;94963.81;10522244;28;1300;-74
2021/12/03 22:04:22;;;;;;;;;;;;;;;-2.27;100.00;94949.91;10514513;28;1225;-76
2021/12/03 22:09:25;;;;;;;;;;;-1.10;99.90;;;-2.14;98.89;94946.38;10508608;28;1432;-72
2021/12/03 22:14:28;;;;;;;;;;;-1.00;99.90;;;-2.14;98.97;94937.66;10520083;28;1922;-72
2021/12/03 22:19:32;;;;;;;;;;;-0.90;99.90;;;-2.11;97.01;94935.38;10526016;28;1609;-76
2021/12/03 22:24:37;;;;;;;;;;;-0.90;99.90;;;-2.13;96.46;94918.22;10535976;28;1368;-77
2021/12/03 22:29:40;;;;;;;;;;;-0.90;99.90;;;-1.97;95.76;94915.03;10535345;28;1866;-76
2021/12/03 22:34:43;;;;;;;;;;;-0.90;99.90;;;-1.95;93.59;94899.81;10530595;28;1964;-76
2021/12/03 22:39:47;;;;;;;;;;;-0.80;99.90;;;-1.91;94.08;94875.47;10535589;28;1902;-76
2021/12/03 22:44:49;;;;;;;;;;;-0.80;99.90;;;-1.94;93.29;94859.28;10519426;28;1846;-76
2021/12/03 22:50:16;;;;;;;;;;;-0.70;99.90;;;-1.82;92.13;94848.84;10513664;28;1947;-77
2021/12/03 22:55:18;;;;;;;;;;;-0.70;99.90;;;-1.82;90.76;94844.38;10534662;28;1801;-75
2021/12/03 23:00:21;;;;;;;;;;;-0.70;99.90;;;-1.84;92.20;94846.44;10518451;28;1889;-76
2021/12/03 23:05:24;;;;;;;;;;;-0.60;99.90;;;-1.75;89.30;94839.03;10509877;28;1854;-75
2021/12/03 23:10:27;;;;;;;;;;;-0.60;99.90;;;-1.62;88.96;94833.59;10523138;28;1980;-75
2021/12/03 23:15:30;;;;;;;;;;;-0.50;99.90;;;-1.54;86.73;94819.31;10537904;28;1964;-76
2021/12/03 23:20:33;;;;;;;;;;;-0.50;99.90;;;-1.34;86.42;94804.03;10533531;28;1862;-75
2021/12/03 23:25:35;;;;;;;;;;;-0.30;99.90;;;-1.27;84.45;94794.25;10536780;28;1773;-74
2021/12/03 23:30:38;;;;;;;;;;;-0.20;99.90;;;-1.20;83.45;94779.13;10528116;28;1921;-75
2021/12/03 23:35:41;;;;;;;;;;;-0.10;99.90;;;-1.18;81.78;94771.00;10528948;28;2022;-74
2021/12/03 23:40:44;;;;;;;;;;;-0.10;99.90;;;-1.23;83.68;94769.03;10518983;28;1817;-74
2021/12/03 23:45:47;;;;;;;;;;;-0.10;99.90;;;-1.17;84.68;94759.41;10527955;28;1821;-76
2021/12/03 23:50:50;;;;;;;;;;;-0.10;99.90;;;-1.11;83.61;94748.75;10523677;28;1982;-76
2021/12/03 23:55:53;;;;;;;;;;;0.00;99.90;;;-1.06;82.57;94745.44;10525855;28;1860;-76
